createdAt,value
2019-05-11T00:00:35.675Z,3.74
2019-05-11T00:03:39.573Z,3.73
2019-05-11T00:06:43.409Z,3.64
2019-05-11T00:09:57.636Z,3.63
2019-05-11T00:12:52.962Z,3.61
2019-05-11T00:15:56.933Z,3.60
2019-05-11T00:19:00.858Z,3.63
2019-05-11T00:22:04.843Z,3.62
2019-05-11T00:25:08.929Z,3.64
2019-05-11T00:28:12.814Z,3.61
2019-05-11T00:31:16.627Z,3.62
2019-05-11T00:34:20.470Z,3.56
2019-05-11T00:37:24.286Z,3.45
2019-05-11T00:40:28.270Z,3.40
2019-05-11T00:43:32.082Z,3.45
2019-05-11T00:46:36.061Z,3.45
2019-05-11T00:49:40.008Z,3.39
2019-05-11T00:52:43.883Z,3.39
2019-05-11T00:55:47.807Z,3.37
2019-05-11T00:58:51.756Z,3.28
2019-05-11T01:01:55.598Z,3.21
2019-05-11T01:04:59.502Z,3.11
2019-05-11T01:08:03.461Z,3.06
2019-05-11T01:11:07.273Z,3.05
2019-05-11T01:14:11.111Z,2.97
2019-05-11T01:17:14.999Z,2.99
2019-05-11T01:20:18.987Z,3.01
2019-05-11T01:23:22.885Z,2.95
2019-05-11T01:26:26.815Z,3.00
2019-05-11T01:29:30.704Z,2.96
2019-05-11T01:32:34.534Z,2.89
2019-05-11T01:35:38.378Z,2.82
2019-05-11T01:38:42.231Z,2.74
2019-05-11T01:41:46.073Z,2.74
2019-05-11T01:44:49.902Z,2.75
2019-05-11T01:47:53.755Z,2.76
2019-05-11T01:50:57.613Z,2.71
2019-05-11T01:54:01.433Z,2.71
2019-05-11T01:57:05.337Z,2.67
2019-05-11T02:00:11.000Z,2.62
2019-05-11T02:03:14.836Z,2.55
2019-05-11T02:06:18.818Z,2.55
2019-05-11T02:09:22.583Z,2.56
2019-05-11T02:12:26.390Z,2.54
2019-05-11T02:15:30.366Z,2.47
2019-05-11T02:18:34.202Z,2.43
2019-05-11T02:21:38.053Z,2.48
2019-05-11T02:24:41.974Z,2.48
2019-05-11T02:27:45.862Z,2.34
2019-05-11T02:30:49.686Z,2.38
2019-05-11T02:33:53.541Z,2.32
2019-05-11T02:36:57.394Z,2.31
2019-05-11T02:40:01.210Z,2.19
2019-05-11T02:43:05.111Z,2.14
2019-05-11T02:46:09.111Z,2.15
2019-05-11T02:49:13.052Z,2.13
2019-05-11T02:52:17.411Z,2.11
2019-05-11T02:55:21.229Z,2.17
2019-05-11T02:58:25.081Z,2.12
2019-05-11T03:01:28.967Z,2.02
2019-05-11T03:04:32.778Z,2.08
2019-05-11T03:07:36.599Z,2.09
2019-05-11T03:10:40.594Z,2.02
2019-05-11T03:13:44.373Z,2.08
2019-05-11T03:16:50.937Z,2.06
2019-05-11T03:19:54.762Z,1.97
2019-05-11T03:22:58.668Z,1.89
2019-05-11T03:26:02.580Z,1.84
2019-05-11T03:29:06.500Z,1.78
2019-05-11T03:32:10.421Z,1.89
2019-05-11T03:35:14.361Z,1.93
2019-05-11T03:38:18.169Z,1.91
2019-05-11T03:41:22.000Z,1.88
2019-05-11T03:44:25.821Z,1.96
2019-05-11T03:47:29.687Z,1.90
2019-05-11T03:50:33.511Z,1.85
2019-05-11T03:53:37.341Z,1.90
2019-05-11T03:56:41.167Z,1.91
2019-05-11T03:59:45.077Z,1.93
2019-05-11T04:02:48.997Z,1.97
2019-05-11T04:05:52.810Z,2.04
2019-05-11T04:08:56.926Z,2.05
2019-05-11T04:12:00.745Z,2.13
2019-05-11T04:15:04.836Z,2.12
2019-05-11T04:18:08.699Z,2.13
2019-05-11T04:21:12.526Z,2.20
2019-05-11T04:24:16.432Z,2.25
2019-05-11T04:27:20.372Z,2.39
2019-05-11T04:30:24.292Z,2.45
2019-05-11T04:33:32.571Z,2.45
2019-05-11T04:36:33.718Z,2.53
2019-05-11T04:39:37.549Z,2.60
2019-05-11T04:42:54.280Z,2.66
2019-05-11T04:45:47.113Z,2.74
2019-05-11T04:48:51.001Z,2.83
2019-05-11T04:51:54.992Z,2.95
2019-05-11T04:54:58.798Z,3.08
2019-05-11T04:58:02.744Z,3.17
2019-05-11T05:01:06.718Z,3.30
2019-05-11T05:04:14.585Z,3.41
2019-05-11T05:07:16.733Z,3.56
2019-05-11T05:10:22.401Z,3.66
2019-05-11T05:13:29.295Z,3.75
2019-05-11T05:16:31.981Z,3.87
2019-05-11T05:19:35.928Z,3.94
2019-05-11T05:22:39.717Z,4.06
2019-05-11T05:25:45.102Z,4.13
2019-05-11T05:28:48.994Z,4.36
2019-05-11T05:31:52.831Z,4.43
2019-05-11T05:34:56.649Z,4.54
2019-05-11T05:38:00.515Z,4.72
2019-05-11T05:41:04.314Z,4.86
2019-05-11T05:44:08.131Z,5.02
2019-05-11T05:47:12.043Z,5.25
2019-05-11T05:50:16.317Z,5.43
2019-05-11T05:53:20.134Z,5.50
2019-05-11T05:56:23.944Z,5.55
2019-05-11T05:59:27.752Z,5.72
2019-05-11T06:02:31.673Z,5.79
2019-05-11T06:05:35.482Z,5.90
2019-05-11T06:08:43.033Z,6.07
2019-05-11T06:11:44.930Z,6.31
2019-05-11T06:14:48.720Z,6.44
2019-05-11T06:17:52.645Z,6.61
2019-05-11T06:20:56.544Z,6.85
2019-05-11T06:24:06.278Z,7.01
2019-05-11T06:27:06.031Z,7.20
2019-05-11T06:30:10.395Z,7.39
2019-05-11T06:33:14.250Z,7.55
2019-05-11T06:36:18.148Z,7.68
2019-05-11T06:39:22.151Z,7.82
2019-05-11T06:42:25.986Z,7.95
2019-05-11T06:45:29.793Z,8.13
2019-05-11T06:48:33.765Z,8.27
2019-05-11T06:51:40.421Z,8.40
2019-05-11T06:54:43.269Z,8.48
2019-05-11T06:57:47.091Z,8.59
2019-05-11T07:00:50.900Z,8.81
2019-05-11T07:03:54.781Z,9.01
2019-05-11T07:06:58.582Z,9.23
2019-05-11T07:10:02.481Z,9.32
2019-05-11T07:13:06.280Z,9.56
2019-05-11T07:16:10.165Z,9.85
2019-05-11T07:19:13.965Z,9.97
2019-05-11T07:22:17.780Z,9.54
2019-05-11T07:25:21.578Z,9.59
2019-05-11T07:28:25.412Z,9.62
2019-05-11T07:31:29.268Z,10.04
2019-05-11T07:34:33.222Z,10.19
2019-05-11T07:37:38.530Z,10.12
2019-05-11T07:40:42.701Z,9.95
2019-05-11T07:43:48.494Z,10.21
2019-05-11T07:46:52.143Z,10.10
2019-05-11T07:49:57.898Z,10.42
2019-05-11T07:53:01.554Z,10.39
2019-05-11T07:56:05.473Z,10.08
2019-05-11T07:59:09.300Z,10.02
2019-05-11T08:02:13.120Z,9.80
2019-05-11T08:05:18.019Z,9.79
2019-05-11T08:08:25.113Z,9.99
2019-05-11T08:11:31.106Z,10.50
2019-05-11T08:14:33.217Z,10.68
2019-05-11T08:17:38.084Z,10.56
2019-05-11T08:20:42.026Z,10.23
2019-05-11T08:23:48.104Z,10.20
2019-05-11T08:26:51.401Z,10.79
2019-05-11T08:29:55.209Z,11.32
2019-05-11T08:32:59.059Z,11.35
2019-05-11T08:36:02.891Z,11.07
2019-05-11T08:39:07.939Z,11.33
2019-05-11T08:42:11.741Z,11.69
2019-05-11T08:45:23.668Z,12.22
2019-05-11T08:48:21.920Z,12.60
2019-05-11T08:51:27.886Z,12.86
2019-05-11T08:54:31.380Z,12.76
2019-05-11T08:57:35.190Z,12.57
2019-05-11T09:00:39.218Z,12.88
2019-05-11T09:03:43.001Z,12.88
2019-05-11T09:06:47.955Z,13.10
2019-05-11T09:09:51.968Z,13.10
2019-05-11T09:12:55.793Z,13.22
2019-05-11T09:15:59.608Z,13.14
2019-05-11T09:19:03.495Z,12.85
2019-05-11T09:22:08.314Z,12.41
2019-05-11T09:25:12.849Z,12.77
2019-05-11T09:28:18.063Z,13.09
2019-05-11T09:31:22.023Z,13.05
2019-05-11T09:34:29.025Z,12.97
2019-05-11T09:37:32.833Z,13.26
2019-05-11T09:40:38.556Z,13.52
2019-05-11T09:43:42.197Z,13.35
2019-05-11T09:46:47.791Z,13.40
2019-05-11T09:49:51.587Z,13.51
2019-05-11T09:52:55.417Z,13.50
2019-05-11T09:55:59.215Z,13.48
2019-05-11T09:59:03.029Z,13.40
2019-05-11T10:02:07.972Z,13.66
2019-05-11T10:05:12.044Z,13.78
2019-05-11T10:08:18.143Z,13.82
2019-05-11T10:11:21.373Z,13.80
2019-05-11T10:14:25.203Z,14.03
2019-05-11T10:17:29.007Z,13.73
2019-05-11T10:20:32.829Z,13.48
2019-05-11T10:23:38.241Z,13.38
2019-05-11T10:26:42.294Z,13.52
2019-05-11T10:29:48.348Z,13.52
2019-05-11T10:32:51.660Z,13.77
2019-05-11T10:35:55.580Z,13.77
2019-05-11T10:38:59.414Z,13.81
2019-05-11T10:42:03.282Z,13.98
2019-05-11T10:45:09.072Z,14.21
2019-05-11T10:48:13.123Z,14.09
2019-05-11T10:51:18.390Z,13.84
2019-05-11T10:54:22.361Z,13.70
2019-05-11T10:57:28.296Z,14.06
2019-05-11T11:00:31.872Z,14.20
2019-05-11T11:03:37.784Z,14.11
2019-05-11T11:06:41.289Z,14.06
2019-05-11T11:09:45.083Z,13.87
2019-05-11T11:12:49.243Z,13.84
2019-05-11T11:15:53.091Z,14.02
2019-05-11T11:18:58.825Z,14.18
2019-05-11T11:22:31.892Z,14.11
2019-05-11T11:25:08.634Z,14.21
2019-05-11T11:28:12.507Z,14.35
2019-05-11T11:31:18.559Z,14.38
2019-05-11T11:34:21.919Z,14.51
2019-05-11T11:37:27.948Z,14.45
2019-05-11T11:40:31.402Z,14.36
2019-05-11T11:43:37.603Z,14.47
2019-05-11T11:46:52.098Z,14.56
2019-05-11T11:49:47.600Z,14.69
2019-05-11T11:52:51.587Z,14.53
2019-05-11T11:55:55.395Z,14.74
2019-05-11T11:58:59.227Z,14.77
2019-05-11T12:02:03.156Z,14.72
2019-05-11T12:05:08.831Z,14.96
2019-05-11T12:08:12.819Z,14.82
2019-05-11T12:11:18.662Z,14.66
2019-05-11T12:14:22.279Z,14.74
2019-05-11T12:17:28.403Z,14.98
2019-05-11T12:20:31.809Z,14.76
2019-05-11T12:23:37.461Z,14.71
2019-05-11T12:26:41.176Z,14.77
2019-05-11T12:29:45.100Z,14.89
2019-05-11T12:32:50.315Z,15.04
2019-05-11T12:35:54.180Z,14.93
2019-05-11T12:38:58.160Z,14.85
2019-05-11T12:42:01.996Z,15.16
2019-05-11T12:45:07.529Z,15.22
2019-05-11T12:48:11.596Z,15.05
2019-05-11T12:51:15.506Z,15.10
2019-05-11T12:54:19.419Z,15.06
2019-05-11T12:57:23.246Z,15.00
2019-05-11T13:00:31.143Z,15.29
2019-05-11T13:03:33.373Z,15.05
2019-05-11T13:06:38.476Z,14.81
2019-05-11T13:09:42.591Z,14.96
2019-05-11T13:12:46.457Z,15.17
2019-05-11T13:15:50.274Z,15.36
2019-05-11T13:18:54.076Z,15.40
2019-05-11T13:21:58.967Z,15.14
2019-05-11T13:25:02.961Z,15.20
2019-05-11T13:28:08.557Z,15.19
2019-05-11T13:31:12.551Z,15.00
2019-05-11T13:34:17.951Z,15.05
2019-05-11T13:37:22.056Z,15.06
2019-05-11T13:40:27.692Z,15.38
2019-05-11T13:43:31.456Z,15.47
2019-05-11T13:46:35.261Z,15.67
2019-05-11T13:49:39.118Z,15.79
2019-05-11T13:52:42.949Z,15.92
2019-05-11T13:55:48.126Z,15.38
2019-05-11T13:58:52.102Z,15.33
2019-05-11T14:01:58.084Z,15.53
2019-05-11T14:05:01.567Z,15.39
2019-05-11T14:08:07.908Z,15.10
2019-05-11T14:11:11.053Z,15.66
2019-05-11T14:14:14.992Z,15.34
2019-05-11T14:17:18.827Z,15.08
2019-05-11T14:20:22.704Z,15.38
2019-05-11T14:23:29.105Z,15.59
2019-05-11T14:26:32.162Z,15.51
2019-05-11T14:29:37.910Z,15.74
2019-05-11T14:32:41.571Z,15.72
2019-05-11T14:35:45.394Z,15.70
2019-05-11T14:38:49.326Z,15.89
2019-05-11T14:41:53.138Z,16.07
2019-05-11T14:44:58.932Z,15.79
2019-05-11T14:48:02.548Z,15.43
2019-05-11T14:51:08.578Z,15.53
2019-05-11T14:54:12.116Z,15.95
2019-05-11T14:57:15.945Z,16.30
2019-05-11T15:00:19.943Z,16.73
2019-05-11T15:03:23.769Z,16.67
2019-05-11T15:06:27.998Z,16.71
2019-05-11T15:09:31.920Z,16.90
2019-05-11T15:12:37.857Z,16.88
2019-05-11T15:15:41.518Z,16.90
2019-05-11T15:18:45.346Z,16.67
2019-05-11T15:21:49.238Z,16.78
2019-05-11T15:24:53.144Z,17.23
2019-05-11T15:27:58.489Z,17.28
2019-05-11T15:31:02.464Z,17.06
2019-05-11T15:34:08.574Z,16.42
2019-05-11T15:37:12.037Z,16.81
2019-05-11T15:40:18.679Z,16.71
2019-05-11T15:43:22.653Z,16.86
2019-05-11T15:46:28.272Z,17.31
2019-05-11T15:49:32.286Z,17.32
2019-05-11T15:52:39.882Z,17.54
2019-05-11T15:55:42.487Z,17.44
2019-05-11T15:58:48.588Z,16.89
2019-05-11T16:01:54.618Z,17.05
2019-05-11T16:04:58.286Z,17.05
2019-05-11T16:08:02.247Z,17.05
2019-05-11T16:11:08.173Z,16.79
2019-05-11T16:14:11.716Z,16.62
2019-05-11T16:17:15.529Z,16.16
2019-05-11T16:20:20.022Z,15.76
2019-05-11T16:23:23.844Z,15.25
2019-05-11T16:26:28.209Z,15.34
2019-05-11T16:29:32.251Z,15.16
2019-05-11T16:32:38.412Z,15.04
2019-05-11T16:35:41.658Z,15.05
2019-05-11T16:38:45.573Z,14.68
2019-05-11T16:41:49.399Z,14.77
2019-05-11T16:44:53.257Z,14.54
2019-05-11T16:47:58.836Z,14.47
2019-05-11T16:51:02.694Z,14.31
2019-05-11T16:54:06.677Z,14.11
2019-05-11T16:57:10.619Z,14.20
2019-05-11T17:00:14.702Z,14.00
2019-05-11T17:03:18.688Z,14.06
2019-05-11T17:06:22.491Z,13.86
2019-05-11T17:09:26.467Z,13.80
2019-05-11T17:12:30.299Z,13.77
2019-05-11T17:15:34.199Z,13.64
2019-05-11T17:18:38.175Z,13.67
2019-05-11T17:21:42.019Z,13.72
2019-05-11T17:24:48.313Z,13.60
2019-05-11T17:27:51.477Z,13.41
2019-05-11T17:30:55.295Z,13.06
2019-05-11T17:33:59.177Z,13.14
2019-05-11T17:37:03.013Z,13.06
2019-05-11T17:40:09.062Z,13.10
2019-05-11T17:43:12.620Z,12.96
2019-05-11T17:46:18.476Z,12.86
2019-05-11T17:49:22.123Z,12.78
2019-05-11T17:52:28.112Z,12.70
2019-05-11T17:55:31.599Z,12.55
2019-05-11T17:58:37.724Z,12.27
2019-05-11T18:01:41.015Z,12.26
2019-05-11T18:04:44.860Z,12.27
2019-05-11T18:07:48.752Z,12.21
2019-05-11T18:10:52.657Z,12.07
2019-05-11T18:13:58.556Z,11.92
2019-05-11T18:17:02.152Z,12.01
2019-05-11T18:20:16.652Z,11.77
2019-05-11T18:23:11.991Z,11.86
2019-05-11T18:26:17.941Z,11.63
2019-05-11T18:29:21.460Z,11.57
2019-05-11T18:32:25.297Z,11.52
2019-05-11T18:35:29.106Z,11.43
2019-05-11T18:38:32.964Z,11.25
2019-05-11T18:41:39.099Z,11.21
2019-05-11T18:44:43.130Z,11.16
2019-05-11T18:47:48.877Z,11.14
2019-05-11T18:50:52.496Z,10.79
2019-05-11T18:53:58.466Z,10.60
2019-05-11T18:57:01.940Z,10.66
2019-05-11T19:00:08.266Z,10.70
2019-05-11T19:03:12.368Z,10.69
2019-05-11T19:06:18.446Z,10.48
2019-05-11T19:09:21.807Z,10.44
2019-05-11T19:12:27.668Z,10.27
2019-05-11T19:15:31.349Z,10.17
2019-05-11T19:18:35.151Z,9.89
2019-05-11T19:21:39.012Z,9.86
2019-05-11T19:24:42.829Z,9.80
2019-05-11T19:27:50.249Z,9.69
2019-05-11T19:30:52.288Z,9.65
2019-05-11T19:33:58.190Z,9.59
2019-05-11T19:37:01.811Z,9.62
2019-05-11T19:40:05.813Z,9.51
2019-05-11T19:43:09.705Z,9.38
2019-05-11T19:46:13.555Z,9.46
2019-05-11T19:49:18.970Z,9.37
2019-05-11T19:52:22.954Z,9.28
2019-05-11T19:55:28.559Z,9.30
2019-05-11T19:58:32.305Z,9.22
2019-05-11T20:01:36.208Z,9.15
2019-05-11T20:04:40.045Z,9.07
2019-05-11T20:07:43.854Z,9.06
2019-05-11T20:10:48.644Z,9.06
2019-05-11T20:13:52.637Z,9.07
2019-05-11T20:16:56.456Z,8.71
2019-05-11T20:20:01.146Z,8.67
2019-05-11T20:23:07.627Z,8.85
2019-05-11T20:26:10.757Z,8.57
2019-05-11T20:29:14.576Z,8.55
2019-05-11T20:32:18.795Z,8.67
2019-05-11T20:35:22.802Z,8.50
2019-05-11T20:38:27.894Z,8.57
2019-05-11T20:41:32.048Z,8.56
2019-05-11T20:44:37.872Z,8.38
2019-05-11T20:47:41.413Z,8.26
2019-05-11T20:50:45.283Z,8.28
2019-05-11T20:53:49.185Z,8.30
2019-05-11T20:56:53.002Z,8.37
2019-05-11T20:59:57.560Z,8.41
2019-05-11T21:03:01.640Z,8.25
2019-05-11T21:06:07.920Z,8.03
2019-05-11T21:09:11.085Z,8.18
2019-05-11T21:12:14.989Z,8.05
2019-05-11T21:15:18.929Z,7.99
2019-05-11T21:18:22.749Z,7.99
2019-05-11T21:21:27.879Z,7.81
2019-05-11T21:24:32.089Z,7.80
2019-05-11T21:27:38.138Z,7.89
2019-05-11T21:30:41.471Z,7.77
2019-05-11T21:33:45.371Z,7.72
2019-05-11T21:36:49.208Z,7.71
2019-05-11T21:39:53.050Z,7.61
2019-05-11T21:42:58.078Z,7.70
2019-05-11T21:46:02.098Z,7.62
2019-05-11T21:49:07.813Z,7.54
2019-05-11T21:52:11.457Z,7.61
2019-05-11T21:55:15.375Z,7.47
2019-05-11T21:58:19.230Z,7.38
2019-05-11T22:01:23.195Z,7.33
2019-05-11T22:04:28.486Z,7.21
2019-05-11T22:07:32.600Z,7.28
2019-05-11T22:10:38.468Z,7.21
2019-05-11T22:13:41.968Z,7.14
2019-05-11T22:16:47.898Z,7.29
2019-05-11T22:19:51.317Z,7.23
2019-05-11T22:22:55.137Z,7.24
2019-05-11T22:25:58.976Z,7.14
2019-05-11T22:29:02.803Z,7.07
2019-05-11T22:32:06.690Z,7.02
2019-05-11T22:35:10.673Z,6.93
2019-05-11T22:38:14.472Z,6.96
2019-05-11T22:41:18.291Z,6.81
2019-05-11T22:44:22.182Z,6.85
2019-05-11T22:47:28.253Z,6.94
2019-05-11T22:50:31.698Z,6.92
2019-05-11T22:53:44.657Z,6.85
2019-05-11T22:56:41.233Z,6.85
2019-05-11T22:59:45.140Z,6.85
2019-05-11T23:02:50.506Z,6.83
2019-05-11T23:05:54.412Z,6.79
2019-05-11T23:08:58.821Z,6.68
2019-05-11T23:12:02.790Z,6.68
2019-05-11T23:15:12.280Z,6.55
2019-05-11T23:18:18.034Z,6.57
2019-05-11T23:21:21.650Z,6.71
2019-05-11T23:24:28.568Z,6.58
2019-05-11T23:27:31.795Z,6.64
2019-05-11T23:30:35.727Z,6.59
2019-05-11T23:33:39.519Z,6.55
2019-05-11T23:36:43.357Z,6.57
2019-05-11T23:39:48.007Z,6.59
2019-05-11T23:42:51.975Z,6.67
2019-05-11T23:45:57.728Z,6.67
2019-05-11T23:49:01.325Z,6.57
2019-05-11T23:52:07.507Z,6.58
2019-05-11T23:55:10.974Z,6.64
2019-05-11T23:58:14.818Z,6.45
